createdAt,value
2018-09-30T00:00:31.568Z,68.73
2018-09-30T00:03:09.688Z,73.50
2018-09-30T00:05:48.088Z,57.57
2018-09-30T00:08:27.445Z,59.93
2018-09-30T00:11:05.906Z,60.93
2018-09-30T00:13:44.069Z,60.63
2018-09-30T00:16:22.507Z,61.07
2018-09-30T00:19:02.215Z,56.97
2018-09-30T00:21:41.285Z,55.13
2018-09-30T00:24:22.973Z,47.70
2018-09-30T00:27:03.415Z,47.93
2018-09-30T00:29:43.366Z,49.83
2018-09-30T00:32:21.445Z,47.20
2018-09-30T00:34:58.270Z,50.43
2018-09-30T00:37:35.186Z,48.97
2018-09-30T00:40:13.888Z,50.23
2018-09-30T00:42:52.106Z,51.47
2018-09-30T00:45:30.471Z,49.67
2018-09-30T00:48:08.730Z,45.90
2018-09-30T00:50:46.767Z,46.43
2018-09-30T00:53:25.048Z,47.37
2018-09-30T00:56:02.949Z,42.13
2018-09-30T00:58:45.725Z,43.90
2018-09-30T01:01:25.582Z,45.27
2018-09-30T01:04:04.430Z,45.47
2018-09-30T01:06:42.685Z,44.23
2018-09-30T01:09:21.890Z,46.17
2018-09-30T01:11:59.873Z,50.43
2018-09-30T01:14:38.469Z,49.73
2018-09-30T01:17:18.329Z,50.67
2018-09-30T01:19:57.268Z,52.03
2018-09-30T01:22:36.546Z,51.70
2018-09-30T01:25:15.472Z,53.57
2018-09-30T01:27:54.052Z,53.80
2018-09-30T01:30:32.251Z,50.03
2018-09-30T01:33:10.257Z,53.70
2018-09-30T01:35:48.411Z,45.27
2018-09-30T01:38:26.969Z,48.80
2018-09-30T01:41:05.153Z,46.53
2018-09-30T01:43:43.288Z,47.57
2018-09-30T01:46:23.546Z,48.87
2018-09-30T01:49:01.988Z,45.73
2018-09-30T01:51:40.227Z,44.93
2018-09-30T01:54:20.285Z,49.87
2018-09-30T01:56:59.629Z,49.00
2018-09-30T01:59:38.053Z,46.23
2018-09-30T02:02:16.110Z,39.97
2018-09-30T02:04:54.806Z,43.57
2018-09-30T02:07:34.316Z,34.67
2018-09-30T02:10:13.347Z,34.53
2018-09-30T02:12:51.291Z,38.87
2018-09-30T02:15:29.603Z,38.13
2018-09-30T02:18:08.415Z,35.83
2018-09-30T02:20:46.750Z,36.33
2018-09-30T02:23:25.648Z,37.00
2018-09-30T02:26:04.346Z,42.20
2018-09-30T02:28:41.472Z,43.63
2018-09-30T02:31:19.496Z,57.77
2018-09-30T02:33:57.509Z,58.03
2018-09-30T02:36:35.667Z,48.63
2018-09-30T02:39:15.988Z,54.27
2018-09-30T02:41:54.529Z,45.43
2018-09-30T02:44:32.730Z,49.93
2018-09-30T02:47:11.128Z,51.10
2018-09-30T02:49:49.793Z,45.50
2018-09-30T02:52:26.993Z,44.67
2018-09-30T02:55:05.128Z,48.37
2018-09-30T02:57:46.227Z,50.00
2018-09-30T03:00:24.952Z,51.20
2018-09-30T03:03:03.356Z,54.17
2018-09-30T03:05:41.711Z,49.33
2018-09-30T03:08:23.509Z,51.73
2018-09-30T03:11:02.425Z,44.20
2018-09-30T03:13:40.615Z,41.83
2018-09-30T03:16:18.726Z,47.37
2018-09-30T03:18:57.565Z,47.57
2018-09-30T03:21:36.886Z,44.90
2018-09-30T03:24:16.103Z,43.60
2018-09-30T03:26:54.268Z,51.27
2018-09-30T03:29:33.805Z,48.97
2018-09-30T03:32:13.378Z,54.77
2018-09-30T03:34:52.162Z,45.53
2018-09-30T03:37:31.585Z,43.77
2018-09-30T03:40:10.944Z,42.57
2018-09-30T03:42:50.220Z,43.50
2018-09-30T03:45:28.466Z,45.93
2018-09-30T03:48:08.066Z,38.80
2018-09-30T03:50:46.763Z,56.50
2018-09-30T03:53:25.744Z,56.37
2018-09-30T03:56:04.326Z,50.17
2018-09-30T03:58:42.344Z,44.67
2018-09-30T04:01:21.409Z,42.90
2018-09-30T04:04:01.768Z,44.03
2018-09-30T04:06:39.990Z,42.50
2018-09-30T04:09:18.565Z,51.60
2018-09-30T04:11:55.557Z,45.60
2018-09-30T04:14:34.777Z,46.43
2018-09-30T04:17:13.109Z,42.63
2018-09-30T04:19:51.010Z,50.37
2018-09-30T04:22:29.455Z,41.67
2018-09-30T04:25:09.535Z,44.87
2018-09-30T04:27:48.684Z,46.53
2018-09-30T04:30:28.468Z,45.13
2018-09-30T04:33:07.067Z,43.60
2018-09-30T04:35:45.826Z,64.10
2018-09-30T04:38:24.605Z,50.33
2018-09-30T04:41:03.686Z,61.70
2018-09-30T04:43:42.929Z,45.43
2018-09-30T04:46:23.166Z,45.67
2018-09-30T04:49:01.730Z,43.50
2018-09-30T04:51:39.626Z,51.23
2018-09-30T04:54:20.335Z,47.27
2018-09-30T04:57:01.224Z,54.43
2018-09-30T04:59:40.589Z,53.10
2018-09-30T05:02:19.791Z,43.43
2018-09-30T05:04:58.704Z,44.80
2018-09-30T05:07:36.992Z,46.03
2018-09-30T05:10:15.626Z,45.33
2018-09-30T05:12:54.529Z,38.87
2018-09-30T05:15:33.333Z,39.03
2018-09-30T05:18:12.151Z,47.50
2018-09-30T05:20:50.333Z,40.50
2018-09-30T05:23:29.978Z,45.37
2018-09-30T05:26:10.571Z,47.40
2018-09-30T05:28:50.455Z,48.27
2018-09-30T05:31:29.471Z,45.00
2018-09-30T05:34:09.047Z,45.73
2018-09-30T05:36:48.227Z,46.63
2018-09-30T05:39:30.684Z,40.60
2018-09-30T05:42:11.692Z,34.80
2018-09-30T05:44:50.645Z,40.00
2018-09-30T05:47:30.812Z,49.40
2018-09-30T05:50:10.424Z,40.83
2018-09-30T05:52:52.924Z,40.47
2018-09-30T05:55:36.223Z,36.17
2018-09-30T05:58:19.880Z,43.57
2018-09-30T06:01:05.762Z,43.53
2018-09-30T06:03:45.185Z,44.10
2018-09-30T06:06:23.429Z,47.97
2018-09-30T06:09:01.850Z,43.53
2018-09-30T06:11:41.578Z,48.67
2018-09-30T06:14:20.088Z,53.03
2018-09-30T06:16:59.485Z,58.43
2018-09-30T06:19:38.008Z,72.47
2018-09-30T06:22:16.287Z,61.00
2018-09-30T06:24:54.807Z,65.20
2018-09-30T06:27:34.109Z,50.70
2018-09-30T06:30:11.728Z,54.10
2018-09-30T06:32:51.629Z,56.97
2018-09-30T06:35:29.890Z,58.70
2018-09-30T06:38:06.805Z,63.77
2018-09-30T06:40:46.748Z,71.37
2018-09-30T06:43:26.337Z,63.13
2018-09-30T06:46:03.990Z,85.90
2018-09-30T06:48:43.569Z,98.67
2018-09-30T06:51:22.428Z,72.23
2018-09-30T06:53:58.975Z,67.53
2018-09-30T06:56:37.850Z,95.50
2018-09-30T06:59:19.151Z,93.70
2018-09-30T07:01:57.147Z,80.20
2018-09-30T07:04:35.724Z,70.27
2018-09-30T07:07:14.670Z,85.57
2018-09-30T07:09:53.605Z,60.73
2018-09-30T07:12:47.872Z,55.30
2018-09-30T07:15:24.312Z,50.07
2018-09-30T07:18:03.368Z,45.30
2018-09-30T07:20:45.091Z,44.03
2018-09-30T07:23:21.231Z,47.70
2018-09-30T07:25:59.709Z,45.40
2018-09-30T07:28:38.308Z,48.83
2018-09-30T07:31:18.851Z,49.10
2018-09-30T07:33:57.867Z,57.20
2018-09-30T07:36:38.285Z,52.17
2018-09-30T07:39:17.946Z,50.80
2018-09-30T07:41:57.489Z,40.73
2018-09-30T07:44:37.933Z,44.20
2018-09-30T07:47:17.488Z,29.90
2018-09-30T07:49:57.688Z,64.23
2018-09-30T07:52:37.279Z,39.87
2018-09-30T07:55:17.772Z,39.67
2018-09-30T07:58:03.125Z,46.30
2018-09-30T08:00:43.072Z,23.00
2018-09-30T08:03:19.946Z,61.40
2018-09-30T08:05:59.588Z,55.30
2018-09-30T08:08:42.970Z,51.90
2018-09-30T08:11:23.907Z,48.93
2018-09-30T08:14:01.869Z,33.47
2018-09-30T08:16:39.694Z,28.97
2018-09-30T08:19:21.328Z,28.33
2018-09-30T08:22:00.790Z,69.63
2018-09-30T08:24:38.786Z,64.00
2018-09-30T08:27:16.333Z,46.93
2018-09-30T08:29:54.066Z,26.63
2018-09-30T08:32:41.213Z,41.10
2018-09-30T08:35:18.329Z,242.27
2018-09-30T08:37:59.651Z,315.23
2018-09-30T08:43:21.865Z,143.10
2018-09-30T08:46:00.869Z,115.50
2018-09-30T08:48:41.710Z,135.27
2018-09-30T08:51:25.972Z,157.97
2018-09-30T08:54:05.606Z,64.17
2018-09-30T08:56:47.929Z,31.23
2018-09-30T08:59:29.665Z,30.17
2018-09-30T09:02:10.649Z,39.27
2018-09-30T09:04:50.034Z,62.93
2018-09-30T09:07:35.090Z,64.63
2018-09-30T09:10:16.983Z,46.50
2018-09-30T09:12:57.890Z,77.40
2018-09-30T09:15:40.272Z,51.93
2018-09-30T09:18:21.289Z,41.40
2018-09-30T09:21:01.232Z,46.50
2018-09-30T09:23:42.950Z,28.90
2018-09-30T09:26:23.189Z,28.13
2018-09-30T09:29:06.593Z,25.27
2018-09-30T09:31:46.527Z,25.30
2018-09-30T09:34:32.306Z,34.73
2018-09-30T09:37:15.052Z,51.40
2018-09-30T09:39:53.998Z,78.53
2018-09-30T09:42:34.867Z,97.67
2018-09-30T09:45:15.172Z,117.30
2018-09-30T09:47:57.333Z,136.90
2018-09-30T09:50:36.913Z,142.87
2018-09-30T09:53:16.948Z,190.97
2018-09-30T09:55:56.425Z,125.73
2018-09-30T09:58:42.952Z,131.57
2018-09-30T10:01:33.779Z,46.90
2018-09-30T10:04:15.572Z,61.07
2018-09-30T10:06:54.367Z,66.53
2018-09-30T10:09:36.106Z,64.43
2018-09-30T10:12:18.408Z,36.90
2018-09-30T10:14:56.759Z,28.27
2018-09-30T10:17:39.832Z,27.23
2018-09-30T10:20:18.428Z,48.07
2018-09-30T10:23:00.745Z,31.00
2018-09-30T10:25:43.144Z,24.57
2018-09-30T10:28:22.011Z,68.97
2018-09-30T10:31:00.169Z,31.87
2018-09-30T10:33:39.568Z,31.87
2018-09-30T10:36:18.750Z,28.33
2018-09-30T10:38:58.402Z,39.73
2018-09-30T10:41:38.287Z,24.00
2018-09-30T10:44:18.011Z,34.43
2018-09-30T10:47:01.007Z,34.77
2018-09-30T10:49:39.171Z,32.60
2018-09-30T10:52:21.371Z,35.40
2018-09-30T10:55:02.998Z,19.33
2018-09-30T10:57:45.142Z,19.90
2018-09-30T11:00:22.774Z,26.17
2018-09-30T11:03:00.743Z,20.57
2018-09-30T11:05:39.210Z,19.63
2018-09-30T11:08:34.665Z,19.30
2018-09-30T11:11:21.436Z,22.23
2018-09-30T11:14:10.541Z,23.23
2018-09-30T11:16:48.789Z,22.93
2018-09-30T11:19:26.001Z,19.80
2018-09-30T11:22:03.727Z,26.23
2018-09-30T11:24:44.765Z,21.10
2018-09-30T11:27:25.727Z,19.43
2018-09-30T11:30:03.439Z,30.13
2018-09-30T11:32:40.698Z,19.27
2018-09-30T11:35:27.229Z,20.23
2018-09-30T11:38:05.850Z,22.53
2018-09-30T11:40:47.241Z,22.87
2018-09-30T11:56:49.249Z,22.90
2018-09-30T11:59:29.166Z,23.20
2018-09-30T12:02:00.161Z,23.50
2018-09-30T12:04:41.315Z,24.30
2018-09-30T12:10:26.381Z,25.97
2018-09-30T12:13:00.472Z,27.97
2018-09-30T12:15:31.746Z,21.60
2018-09-30T12:18:03.726Z,25.73
2018-09-30T12:20:36.104Z,26.83
2018-09-30T12:23:09.810Z,28.53
2018-09-30T12:25:57.702Z,27.77
2018-09-30T12:28:29.104Z,28.73
2018-09-30T12:31:01.204Z,29.13
2018-09-30T12:33:32.449Z,31.00
2018-09-30T12:36:04.035Z,30.50
2018-09-30T12:38:46.334Z,29.37
2018-09-30T12:41:30.268Z,32.60
2018-09-30T12:44:09.361Z,34.40
2018-09-30T12:46:46.293Z,34.87
2018-09-30T12:49:23.698Z,31.07
2018-09-30T12:52:00.932Z,32.37
2018-09-30T12:54:41.170Z,33.40
2018-09-30T12:57:21.041Z,27.03
2018-09-30T13:00:02.189Z,29.47
2018-09-30T13:02:46.493Z,34.50
2018-09-30T13:05:25.771Z,36.00
2018-09-30T13:08:07.136Z,36.60
2018-09-30T13:10:46.690Z,33.93
2018-09-30T13:13:27.871Z,31.87
2018-09-30T13:16:07.717Z,33.10
2018-09-30T13:18:51.892Z,26.00
2018-09-30T13:21:40.313Z,31.90
2018-09-30T13:24:20.451Z,29.47
2018-09-30T13:27:00.538Z,34.57
2018-09-30T13:29:56.513Z,25.87
2018-09-30T13:32:35.497Z,31.40
2018-09-30T13:35:14.853Z,34.23
2018-09-30T13:37:53.549Z,26.80
2018-09-30T13:40:35.252Z,32.80
2018-09-30T13:43:18.932Z,30.40
2018-09-30T13:46:01.316Z,31.87
2018-09-30T13:48:52.748Z,33.17
2018-09-30T13:51:32.252Z,33.17
2018-09-30T13:54:10.856Z,34.80
2018-09-30T13:56:49.252Z,35.27
2018-09-30T13:59:44.173Z,36.10
2018-09-30T14:02:31.994Z,30.27
2018-09-30T14:05:16.331Z,27.63
2018-09-30T14:07:53.353Z,32.43
2018-09-30T14:10:44.779Z,34.40
2018-09-30T14:13:35.020Z,35.47
2018-09-30T14:16:25.894Z,32.00
2018-09-30T14:19:05.653Z,30.37
2018-09-30T14:21:47.195Z,32.37
2018-09-30T14:24:25.144Z,31.23
2018-09-30T14:27:13.825Z,35.33
2018-09-30T14:29:54.378Z,33.80
2018-09-30T14:32:34.630Z,34.70
2018-09-30T14:35:15.938Z,34.40
2018-09-30T14:37:57.936Z,32.57
2018-09-30T14:40:37.338Z,34.23
2018-09-30T14:43:21.676Z,34.77
2018-09-30T14:46:02.311Z,33.77
2018-09-30T14:48:42.905Z,34.80
2018-09-30T14:51:24.512Z,35.30
2018-09-30T14:54:07.624Z,36.37
2018-09-30T14:56:45.634Z,37.53
2018-09-30T14:59:25.593Z,33.03
2018-09-30T15:02:08.604Z,36.80
2018-09-30T15:04:49.579Z,37.57
2018-09-30T15:07:27.410Z,36.87
2018-09-30T15:10:06.992Z,36.13
2018-09-30T15:12:48.693Z,37.07
2018-09-30T15:15:25.534Z,38.13
2018-09-30T15:18:03.313Z,32.60
2018-09-30T15:20:46.519Z,42.87
2018-09-30T15:23:25.498Z,44.47
2018-09-30T15:26:05.380Z,52.87
2018-09-30T15:28:45.973Z,49.07
2018-09-30T15:31:25.158Z,38.50
2018-09-30T15:34:05.999Z,38.77
2018-09-30T15:36:44.118Z,38.83
2018-09-30T15:39:21.097Z,37.03
2018-09-30T15:42:01.058Z,38.00
2018-09-30T15:44:39.157Z,41.67
2018-09-30T15:47:18.741Z,41.50
2018-09-30T15:49:57.334Z,39.43
2018-09-30T15:52:35.598Z,39.73
2018-09-30T15:55:16.700Z,44.23
2018-09-30T15:57:55.937Z,41.50
2018-09-30T16:00:33.619Z,48.97
2018-09-30T16:03:18.155Z,55.67
2018-09-30T16:06:01.148Z,60.83
2018-09-30T16:08:44.175Z,83.97
2018-09-30T16:11:27.479Z,103.63
2018-09-30T16:14:06.445Z,130.13
2018-09-30T16:16:43.076Z,150.77
2018-09-30T16:19:19.817Z,171.73
2018-09-30T16:21:56.719Z,202.70
2018-09-30T16:24:37.383Z,182.03
2018-09-30T16:27:18.599Z,172.30
2018-09-30T16:29:57.597Z,161.03
2018-09-30T16:32:38.055Z,112.83
2018-09-30T16:35:21.384Z,89.53
2018-09-30T16:37:59.217Z,72.47
2018-09-30T16:40:43.618Z,54.67
2018-09-30T16:43:22.964Z,53.03
2018-09-30T16:46:00.018Z,45.37
2018-09-30T16:48:36.999Z,43.73
2018-09-30T16:51:20.461Z,39.73
2018-09-30T16:53:57.389Z,39.17
2018-09-30T16:56:34.056Z,34.37
2018-09-30T16:59:10.773Z,31.37
2018-09-30T17:01:49.079Z,26.40
2018-09-30T17:04:26.292Z,25.40
2018-09-30T17:07:06.959Z,31.13
2018-09-30T17:09:48.554Z,28.73
2018-09-30T17:12:28.938Z,26.33
2018-09-30T17:15:10.174Z,26.23
2018-09-30T17:17:47.455Z,24.47
2018-09-30T17:20:28.877Z,23.10
2018-09-30T17:23:08.461Z,23.63
2018-09-30T17:25:50.096Z,23.17
2018-09-30T17:28:28.038Z,22.73
2018-09-30T17:31:07.335Z,23.37
2018-09-30T17:33:45.056Z,34.03
2018-09-30T17:36:25.655Z,33.60
2018-09-30T17:39:03.398Z,50.17
2018-09-30T17:41:41.899Z,50.60
2018-09-30T17:44:20.476Z,32.17
2018-09-30T17:47:01.535Z,24.80
2018-09-30T17:49:41.957Z,51.63
2018-09-30T17:52:22.406Z,50.83
2018-09-30T17:55:03.278Z,128.50
2018-09-30T17:57:43.619Z,127.27
2018-09-30T18:00:24.542Z,125.03
2018-09-30T18:03:05.595Z,206.27
2018-09-30T18:05:44.537Z,267.93
2018-09-30T18:08:26.135Z,250.30
2018-09-30T18:11:05.260Z,267.43
2018-09-30T18:13:46.677Z,212.43
2018-09-30T18:16:26.520Z,153.23
2018-09-30T18:19:07.234Z,140.90
2018-09-30T18:21:46.053Z,112.23
2018-09-30T18:24:29.399Z,74.50
2018-09-30T18:27:08.677Z,51.10
2018-09-30T18:32:30.878Z,61.30
2018-09-30T18:35:11.122Z,43.30
2018-09-30T18:37:50.976Z,33.87
2018-09-30T18:40:31.557Z,43.47
2018-09-30T18:43:11.821Z,35.23
2018-09-30T18:45:52.282Z,42.33
2018-09-30T18:48:29.600Z,45.80
2018-09-30T18:51:12.359Z,61.07
2018-09-30T18:53:50.557Z,58.50
2018-09-30T18:56:31.837Z,72.70
2018-09-30T18:59:11.460Z,124.33
2018-09-30T19:01:52.338Z,176.17
2018-09-30T19:04:31.235Z,266.77
2018-09-30T19:07:11.780Z,327.00
2018-09-30T19:09:50.738Z,302.50
2018-09-30T19:12:30.961Z,468.57
2018-09-30T19:15:12.195Z,573.00
2018-09-30T19:17:51.440Z,679.63
2018-09-30T19:20:30.056Z,734.83
2018-09-30T19:23:08.916Z,755.27
2018-09-30T19:25:51.335Z,766.83
2018-09-30T19:28:30.338Z,789.73
2018-09-30T19:31:09.698Z,701.93
2018-09-30T19:33:50.477Z,652.10
2018-09-30T19:36:28.076Z,724.20
2018-09-30T19:39:09.063Z,683.40
2018-09-30T19:41:50.277Z,646.90
2018-09-30T19:44:29.222Z,647.63
2018-09-30T19:47:10.898Z,659.97
2018-09-30T19:49:49.714Z,647.87
2018-09-30T19:52:30.882Z,650.30
2018-09-30T19:55:11.646Z,583.13
2018-09-30T19:57:50.938Z,699.33
2018-09-30T20:00:32.218Z,616.13
2018-09-30T20:03:11.223Z,658.77
2018-09-30T20:05:51.033Z,648.60
2018-09-30T20:08:31.879Z,689.80
2018-09-30T20:11:11.317Z,682.00
2018-09-30T20:13:51.798Z,679.30
2018-09-30T20:16:32.200Z,678.23
2018-09-30T20:19:11.439Z,617.60
2018-09-30T20:21:52.377Z,598.70
2018-09-30T20:24:32.895Z,597.00
2018-09-30T20:27:11.997Z,506.37
2018-09-30T20:29:50.051Z,444.07
2018-09-30T20:32:29.718Z,335.10
2018-09-30T20:35:11.580Z,286.67
2018-09-30T20:37:50.635Z,238.13
2018-09-30T20:40:29.164Z,242.23
2018-09-30T20:43:10.295Z,179.57
2018-09-30T20:45:49.104Z,197.47
2018-09-30T20:48:29.396Z,192.87
2018-09-30T20:51:09.396Z,220.07
2018-09-30T20:53:49.197Z,268.90
2018-09-30T20:56:29.476Z,205.07
2018-09-30T20:59:09.120Z,239.77
2018-09-30T21:01:48.873Z,247.03
2018-09-30T21:04:25.713Z,227.17
2018-09-30T21:07:05.675Z,238.57
2018-09-30T21:09:42.774Z,232.97
2018-09-30T21:12:21.380Z,232.50
2018-09-30T21:15:05.663Z,226.17
2018-09-30T21:17:43.772Z,170.33
2018-09-30T21:20:20.914Z,120.47
2018-09-30T21:22:59.538Z,140.83
2018-09-30T21:25:37.955Z,144.77
2018-09-30T21:28:16.547Z,126.67
2018-09-30T21:30:56.537Z,123.43
2018-09-30T21:33:51.857Z,152.73
2018-09-30T21:36:31.714Z,151.03
2018-09-30T21:39:12.859Z,145.53
2018-09-30T21:41:52.323Z,129.03
2018-09-30T21:44:32.014Z,132.73
2018-09-30T21:47:10.955Z,117.37
2018-09-30T21:49:50.542Z,133.50
2018-09-30T21:52:30.957Z,121.30
2018-09-30T21:55:09.573Z,111.83
2018-09-30T21:57:48.296Z,120.17
2018-09-30T22:00:30.919Z,101.97
2018-09-30T22:03:11.196Z,83.03
2018-09-30T22:05:48.660Z,81.60
2018-09-30T22:08:27.098Z,77.03
2018-09-30T22:11:06.856Z,78.77
2018-09-30T22:13:45.576Z,73.43
2018-09-30T22:16:23.655Z,74.90
2018-09-30T22:19:02.940Z,72.17
2018-09-30T22:21:41.460Z,67.50
2018-09-30T22:24:35.662Z,63.40
2018-09-30T22:27:14.617Z,53.27
2018-09-30T22:29:54.575Z,43.90
2018-09-30T22:32:33.136Z,42.20
2018-09-30T22:35:12.596Z,41.57
2018-09-30T22:37:53.302Z,43.97
2018-09-30T22:40:30.076Z,42.53
2018-09-30T22:43:08.716Z,43.67
2018-09-30T22:45:48.621Z,44.10
2018-09-30T22:48:29.239Z,42.97
2018-09-30T22:51:08.495Z,58.70
2018-09-30T22:53:48.480Z,56.10
2018-09-30T22:56:27.119Z,50.23
2018-09-30T22:59:05.855Z,56.23
2018-09-30T23:01:44.276Z,65.17
2018-09-30T23:04:23.666Z,53.23
2018-09-30T23:07:01.757Z,55.77
2018-09-30T23:09:40.302Z,76.87
2018-09-30T23:12:17.779Z,70.77
2018-09-30T23:14:57.857Z,58.10
2018-09-30T23:17:36.380Z,54.20
2018-09-30T23:20:20.498Z,51.57
2018-09-30T23:22:58.736Z,67.87
2018-09-30T23:25:37.035Z,62.80
2018-09-30T23:28:16.214Z,124.77
2018-09-30T23:30:54.737Z,168.37
2018-09-30T23:33:32.219Z,219.40
2018-09-30T23:36:10.957Z,200.53
2018-09-30T23:38:50.115Z,222.00
2018-09-30T23:41:28.453Z,191.57
2018-09-30T23:44:07.556Z,249.83
2018-09-30T23:46:46.020Z,253.80
2018-09-30T23:49:28.160Z,213.50
2018-09-30T23:52:06.596Z,196.33
2018-09-30T23:54:45.819Z,254.23
2018-09-30T23:57:23.976Z,269.00
